sensor_id;sensor_type;location;lat;lon;timestamp;pressure;altitude;pressure_sealevel;temperature;humidity
3254;BME280;1639;42.804;23.342;2023-04-08T00:00:17;74002.38;;;-148.52;64.70
3254;BME280;1639;42.804;23.342;2023-04-08T00:02:43;73992.03;;;-148.52;64.02
3254;BME280;1639;42.804;23.342;2023-04-08T00:05:08;73998.25;;;-148.52;64.16
3254;BME280;1639;42.804;23.342;2023-04-08T00:07:34;74000.31;;;-148.52;64.21
3254;BME280;1639;42.804;23.342;2023-04-08T00:10:00;74012.72;;;-148.52;64.74
3254;BME280;1639;42.804;23.342;2023-04-08T00:12:25;74012.72;;;-148.52;65.19
3254;BME280;1639;42.804;23.342;2023-04-08T00:14:51;74018.94;;;-148.52;64.96
3254;BME280;1639;42.804;23.342;2023-04-08T00:17:16;74016.88;;;-148.52;65.94
3254;BME280;1639;42.804;23.342;2023-04-08T00:19:42;74016.88;;;-148.52;65.56
3254;BME280;1639;42.804;23.342;2023-04-08T00:22:07;74035.47;;;-148.52;66.80
3254;BME280;1639;42.804;23.342;2023-04-08T00:24:33;74041.69;;;-148.52;66.80
3254;BME280;1639;42.804;23.342;2023-04-08T00:26:58;74033.41;;;-148.52;66.54
3254;BME280;1639;42.804;23.342;2023-04-08T00:29:24;74039.63;;;-148.52;65.75
3254;BME280;1639;42.804;23.342;2023-04-08T00:31:49;74027.22;;;-148.52;65.61
3254;BME280;1639;42.804;23.342;2023-04-08T00:34:15;74025.13;;;-148.52;65.45
3254;BME280;1639;42.804;23.342;2023-04-08T00:36:41;74035.47;;;-148.52;65.83
3254;BME280;1639;42.804;23.342;2023-04-08T00:39:06;74037.53;;;-148.52;65.81
3254;BME280;1639;42.804;23.342;2023-04-08T00:41:35;74039.63;;;-148.52;66.38
3254;BME280;1639;42.804;23.342;2023-04-08T00:44:00;74054.09;;;-148.52;66.32
3254;BME280;1639;42.804;23.342;2023-04-08T00:46:26;74060.31;;;-148.52;66.48
3254;BME280;1639;42.804;23.342;2023-04-08T00:48:51;74060.31;;;-148.52;66.67
3254;BME280;1639;42.804;23.342;2023-04-08T00:51:18;74064.44;;;-148.52;66.20
3254;BME280;1639;42.804;23.342;2023-04-08T00:53:43;74049.97;;;-148.52;66.41
3254;BME280;1639;42.804;23.342;2023-04-08T00:56:09;74052.03;;;-148.52;66.54
3254;BME280;1639;42.804;23.342;2023-04-08T00:58:35;74070.66;;;-148.52;67.69
3254;BME280;1639;42.804;23.342;2023-04-08T01:01:13;74085.13;;;-148.52;68.57
3254;BME280;1639;42.804;23.342;2023-04-08T01:04:09;74078.94;;;-148.52;69.26
3254;BME280;1639;42.804;23.342;2023-04-08T01:06:49;74060.31;;;-148.52;68.38
3254;BME280;1639;42.804;23.342;2023-04-08T01:09:18;74064.44;;;-148.52;68.40
3254;BME280;1639;42.804;23.342;2023-04-08T01:11:45;74072.72;;;-148.52;68.47
3254;BME280;1639;42.804;23.342;2023-04-08T01:14:17;74068.59;;;-148.52;69.44
3254;BME280;1639;42.804;23.342;2023-04-08T01:16:45;74072.72;;;-148.52;70.02
3254;BME280;1639;42.804;23.342;2023-04-08T01:19:27;74072.72;;;-148.52;70.29
3254;BME280;1639;42.804;23.342;2023-04-08T01:21:56;74064.44;;;-148.52;71.55
3254;BME280;1639;42.804;23.342;2023-04-08T01:24:28;74052.03;;;-148.52;72.24
3254;BME280;1639;42.804;23.342;2023-04-08T01:26:55;74058.22;;;-148.52;72.60
3254;BME280;1639;42.804;23.342;2023-04-08T01:29:23;74043.75;;;-148.52;71.40
3254;BME280;1639;42.804;23.342;2023-04-08T01:31:50;74039.63;;;-148.52;70.92
3254;BME280;1639;42.804;23.342;2023-04-08T01:34:19;74031.34;;;-148.52;70.89
3254;BME280;1639;42.804;23.342;2023-04-08T01:36:45;74027.22;;;-148.52;70.81
3254;BME280;1639;42.804;23.342;2023-04-08T01:39:13;74027.22;;;-148.52;71.40
3254;BME280;1639;42.804;23.342;2023-04-08T01:41:41;74043.75;;;-148.52;72.81
3254;BME280;1639;42.804;23.342;2023-04-08T01:44:09;74031.34;;;-148.52;72.58
3254;BME280;1639;42.804;23.342;2023-04-08T01:46:35;74014.78;;;-148.52;73.22
3254;BME280;1639;42.804;23.342;2023-04-08T01:49:01;74014.78;;;-148.52;73.20
3254;BME280;1639;42.804;23.342;2023-04-08T01:51:29;74014.78;;;-148.52;73.35
3254;BME280;1639;42.804;23.342;2023-04-08T01:53:56;74010.66;;;-148.52;73.62
3254;BME280;1639;42.804;23.342;2023-04-08T01:56:21;74025.13;;;-148.52;74.82
3254;BME280;1639;42.804;23.342;2023-04-08T01:58:51;74014.78;;;-148.52;75.15
3254;BME280;1639;42.804;23.342;2023-04-08T02:01:20;74002.38;;;-148.52;74.73
3254;BME280;1639;42.804;23.342;2023-04-08T02:03:47;73996.16;;;-148.52;73.36
3254;BME280;1639;42.804;23.342;2023-04-08T02:06:16;73987.91;;;-148.52;73.37
3254;BME280;1639;42.804;23.342;2023-04-08T02:08:41;73989.97;;;-148.52;72.99
3254;BME280;1639;42.804;23.342;2023-04-08T02:11:07;73992.03;;;-148.52;73.45
3254;BME280;1639;42.804;23.342;2023-04-08T02:13:32;73965.16;;;-148.52;72.80
3254;BME280;1639;42.804;23.342;2023-04-08T02:16:28;73956.88;;;-148.52;72.67
3254;BME280;1639;42.804;23.342;2023-04-08T02:18:58;73954.81;;;-148.52;72.08
3254;BME280;1639;42.804;23.342;2023-04-08T02:21:34;73965.16;;;-148.52;72.06
3254;BME280;1639;42.804;23.342;2023-04-08T02:24:04;73969.28;;;-148.52;72.30
3254;BME280;1639;42.804;23.342;2023-04-08T02:26:33;73977.56;;;-148.52;71.71
3254;BME280;1639;42.804;23.342;2023-04-08T02:29:01;73967.22;;;-148.52;71.81
3254;BME280;1639;42.804;23.342;2023-04-08T02:31:28;73983.75;;;-148.52;72.93
3254;BME280;1639;42.804;23.342;2023-04-08T02:33:54;73979.63;;;-148.52;73.28
3254;BME280;1639;42.804;23.342;2023-04-08T02:36:21;73977.56;;;-148.52;72.47
3254;BME280;1639;42.804;23.342;2023-04-08T02:38:47;73954.81;;;-148.52;71.73
3254;BME280;1639;42.804;23.342;2023-04-08T02:41:14;73950.66;;;-148.52;70.52
3254;BME280;1639;42.804;23.342;2023-04-08T02:43:40;73952.72;;;-148.52;69.86
3254;BME280;1639;42.804;23.342;2023-04-08T02:46:06;73967.22;;;-148.52;68.81
3254;BME280;1639;42.804;23.342;2023-04-08T02:48:31;73961.00;;;-148.52;67.05
3254;BME280;1639;42.804;23.342;2023-04-08T02:50:56;73994.09;;;-148.52;66.40
3254;BME280;1639;42.804;23.342;2023-04-08T02:53:22;74000.31;;;-148.52;66.72
3254;BME280;1639;42.804;23.342;2023-04-08T02:55:48;73977.56;;;-148.52;66.20
3254;BME280;1639;42.804;23.342;2023-04-08T02:58:13;73977.56;;;-148.52;65.57
3254;BME280;1639;42.804;23.342;2023-04-08T03:00:39;73987.91;;;-148.52;65.89
3254;BME280;1639;42.804;23.342;2023-04-08T03:03:05;73981.69;;;-148.52;65.78
3254;BME280;1639;42.804;23.342;2023-04-08T03:05:33;73985.81;;;-148.52;65.92
3254;BME280;1639;42.804;23.342;2023-04-08T03:07:58;73985.81;;;-148.52;66.17
3254;BME280;1639;42.804;23.342;2023-04-08T03:10:24;73996.16;;;-148.52;66.56
3254;BME280;1639;42.804;23.342;2023-04-08T03:12:50;73979.63;;;-148.52;65.52
3254;BME280;1639;42.804;23.342;2023-04-08T03:15:15;73992.03;;;-148.52;65.49
3254;BME280;1639;42.804;23.342;2023-04-08T03:17:41;74010.66;;;-148.52;66.74
3254;BME280;1639;42.804;23.342;2023-04-08T03:20:07;74010.66;;;-148.52;67.25
3254;BME280;1639;42.804;23.342;2023-04-08T03:22:33;74006.53;;;-148.52;67.61
3254;BME280;1639;42.804;23.342;2023-04-08T03:24:58;73994.09;;;-148.52;67.46
3254;BME280;1639;42.804;23.342;2023-04-08T03:27:24;73994.09;;;-148.52;67.69
3254;BME280;1639;42.804;23.342;2023-04-08T03:29:50;74002.38;;;-148.52;68.08
3254;BME280;1639;42.804;23.342;2023-04-08T03:32:17;74002.38;;;-148.52;68.34
3254;BME280;1639;42.804;23.342;2023-04-08T03:34:42;73998.25;;;-148.52;67.48
3254;BME280;1639;42.804;23.342;2023-04-08T03:37:08;73992.03;;;-148.52;67.81
3254;BME280;1639;42.804;23.342;2023-04-08T03:39:33;73992.03;;;-148.52;67.36
3254;BME280;1639;42.804;23.342;2023-04-08T03:41:58;73998.25;;;-148.52;67.67
3254;BME280;1639;42.804;23.342;2023-04-08T03:44:25;74006.53;;;-148.52;67.12
3254;BME280;1639;42.804;23.342;2023-04-08T03:46:51;73989.97;;;-148.52;66.53
3254;BME280;1639;42.804;23.342;2023-04-08T03:49:16;74002.38;;;-148.52;66.54
3254;BME280;1639;42.804;23.342;2023-04-08T03:51:42;73996.16;;;-148.52;66.96
3254;BME280;1639;42.804;23.342;2023-04-08T03:54:07;73981.69;;;-148.52;66.86
3254;BME280;1639;42.804;23.342;2023-04-08T03:56:32;73975.47;;;-148.52;66.29
3254;BME280;1639;42.804;23.342;2023-04-08T03:58:58;73987.91;;;-148.52;65.88
3254;BME280;1639;42.804;23.342;2023-04-08T04:01:23;73963.06;;;-148.52;66.00
3254;BME280;1639;42.804;23.342;2023-04-08T04:03:49;73954.81;;;-148.52;65.48
3254;BME280;1639;42.804;23.342;2023-04-08T04:06:14;73965.16;;;-148.52;65.06
3254;BME280;1639;42.804;23.342;2023-04-08T04:08:39;73958.94;;;-148.52;65.20
3254;BME280;1639;42.804;23.342;2023-04-08T04:11:05;73975.47;;;-148.52;65.18
3254;BME280;1639;42.804;23.342;2023-04-08T04:13:30;73973.41;;;-148.52;64.78
3254;BME280;1639;42.804;23.342;2023-04-08T04:15:55;73996.16;;;-148.52;64.95
3254;BME280;1639;42.804;23.342;2023-04-08T04:18:21;74002.38;;;-148.52;65.61
3254;BME280;1639;42.804;23.342;2023-04-08T04:20:47;74012.72;;;-148.52;66.11
3254;BME280;1639;42.804;23.342;2023-04-08T04:23:12;74023.06;;;-148.52;67.37
3254;BME280;1639;42.804;23.342;2023-04-08T04:25:40;74021.00;;;-148.52;67.70
3254;BME280;1639;42.804;23.342;2023-04-08T04:28:06;74025.13;;;-148.52;67.33
3254;BME280;1639;42.804;23.342;2023-04-08T04:30:32;74018.94;;;-148.52;67.86
3254;BME280;1639;42.804;23.342;2023-04-08T04:32:57;74023.06;;;-148.52;68.22
3254;BME280;1639;42.804;23.342;2023-04-08T04:35:23;74014.78;;;-148.52;69.21
3254;BME280;1639;42.804;23.342;2023-04-08T04:37:48;74041.69;;;-148.52;69.38
3254;BME280;1639;42.804;23.342;2023-04-08T04:40:16;74031.34;;;-148.52;70.91
3254;BME280;1639;42.804;23.342;2023-04-08T04:42:41;74041.69;;;-148.52;70.75
3254;BME280;1639;42.804;23.342;2023-04-08T04:45:07;74035.47;;;-148.52;70.19
3254;BME280;1639;42.804;23.342;2023-04-08T04:47:34;74027.22;;;-148.52;69.72
3254;BME280;1639;42.804;23.342;2023-04-08T04:49:59;74025.13;;;-148.52;70.42
3254;BME280;1639;42.804;23.342;2023-04-08T04:52:25;73981.69;;;-148.52;74.48
3254;BME280;1639;42.804;23.342;2023-04-08T04:54:50;73985.81;;;-148.52;71.34
3254;BME280;1639;42.804;23.342;2023-04-08T04:57:16;73979.63;;;-148.52;70.69
3254;BME280;1639;42.804;23.342;2023-04-08T04:59:41;73973.41;;;-148.52;68.92
3254;BME280;1639;42.804;23.342;2023-04-08T05:02:06;73963.06;;;-148.52;68.79
3254;BME280;1639;42.804;23.342;2023-04-08T05:04:32;73961.00;;;-148.52;69.43
3254;BME280;1639;42.804;23.342;2023-04-08T05:07:00;73963.06;;;-148.52;67.73
3254;BME280;1639;42.804;23.342;2023-04-08T05:09:25;73961.00;;;-148.52;66.96
3254;BME280;1639;42.804;23.342;2023-04-08T05:11:51;73967.22;;;-148.52;67.50
3254;BME280;1639;42.804;23.342;2023-04-08T05:14:16;73985.81;;;-148.52;67.46
3254;BME280;1639;42.804;23.342;2023-04-08T05:16:41;73965.16;;;-148.52;67.48
3254;BME280;1639;42.804;23.342;2023-04-08T05:19:07;73987.91;;;-148.52;68.79
3254;BME280;1639;42.804;23.342;2023-04-08T05:21:32;74000.31;;;-148.52;70.99
3254;BME280;1639;42.804;23.342;2023-04-08T05:23:58;73963.06;;;-148.52;72.08
3254;BME280;1639;42.804;23.342;2023-04-08T05:26:23;73952.72;;;-148.52;70.67
3254;BME280;1639;42.804;23.342;2023-04-08T05:28:49;73932.03;;;-148.52;70.70
3254;BME280;1639;42.804;23.342;2023-04-08T05:31:19;73915.50;;;-148.52;69.36
3254;BME280;1639;42.804;23.342;2023-04-08T05:33:44;73915.50;;;-148.52;67.86
3254;BME280;1639;42.804;23.342;2023-04-08T05:36:11;73894.81;;;-148.52;66.37
3254;BME280;1639;42.804;23.342;2023-04-08T05:38:37;73867.91;;;-148.52;64.96
3254;BME280;1639;42.804;23.342;2023-04-08T05:41:02;73859.63;;;-148.52;65.15
3254;BME280;1639;42.804;23.342;2023-04-08T05:43:28;73841.03;;;-148.52;64.96
3254;BME280;1639;42.804;23.342;2023-04-08T05:45:53;73828.59;;;-148.52;64.19
3254;BME280;1639;42.804;23.342;2023-04-08T05:48:19;73834.81;;;-148.52;63.88
3254;BME280;1639;42.804;23.342;2023-04-08T05:50:45;73830.69;;;-148.52;62.81
3254;BME280;1639;42.804;23.342;2023-04-08T05:53:12;73812.06;;;-148.52;64.19
3254;BME280;1639;42.804;23.342;2023-04-08T05:55:38;73795.50;;;-148.52;64.49
3254;BME280;1639;42.804;23.342;2023-04-08T05:58:03;73770.69;;;-148.52;63.27
3254;BME280;1639;42.804;23.342;2023-04-08T06:00:28;73785.16;;;-148.52;63.62
3254;BME280;1639;42.804;23.342;2023-04-08T06:02:54;73758.28;;;-148.52;63.05
3254;BME280;1639;42.804;23.342;2023-04-08T06:05:19;73743.78;;;-148.52;62.66
3254;BME280;1639;42.804;23.342;2023-04-08T06:07:44;73723.09;;;-148.52;61.56
3254;BME280;1639;42.804;23.342;2023-04-08T06:10:10;73702.44;;;-148.52;60.91
3254;BME280;1639;42.804;23.342;2023-04-08T06:12:36;73683.81;;;-148.52;60.01
3254;BME280;1639;42.804;23.342;2023-04-08T06:15:08;73667.25;;;-148.52;59.44
3254;BME280;1639;42.804;23.342;2023-04-08T06:17:37;73661.06;;;-148.52;59.55
3254;BME280;1639;42.804;23.342;2023-04-08T06:20:04;73658.97;;;-148.52;59.17
3254;BME280;1639;42.804;23.342;2023-04-08T06:22:29;73654.84;;;-148.52;59.76
3254;BME280;1639;42.804;23.342;2023-04-08T06:24:55;73667.25;;;-148.52;59.53
3254;BME280;1639;42.804;23.342;2023-04-08T06:27:20;73702.44;;;-148.52;59.96
3254;BME280;1639;42.804;23.342;2023-04-08T06:29:46;73690.00;;;-148.52;61.23
3254;BME280;1639;42.804;23.342;2023-04-08T06:32:12;73685.88;;;-148.52;61.31
3254;BME280;1639;42.804;23.342;2023-04-08T06:34:37;73685.88;;;-148.52;60.83
3254;BME280;1639;42.804;23.342;2023-04-08T06:37:03;73679.66;;;-148.52;61.18
3254;BME280;1639;42.804;23.342;2023-04-08T06:39:30;73675.53;;;-148.52;61.88
3254;BME280;1639;42.804;23.342;2023-04-08T06:41:55;73658.97;;;-148.52;62.07
3254;BME280;1639;42.804;23.342;2023-04-08T06:44:22;73644.50;;;-148.52;61.84
3254;BME280;1639;42.804;23.342;2023-04-08T06:46:47;73644.50;;;-148.52;61.01
3254;BME280;1639;42.804;23.342;2023-04-08T06:49:13;73621.75;;;-148.52;61.44
3254;BME280;1639;42.804;23.342;2023-04-08T06:51:45;73615.53;;;-148.52;61.34
3254;BME280;1639;42.804;23.342;2023-04-08T06:54:10;73613.47;;;-148.52;60.85
3254;BME280;1639;42.804;23.342;2023-04-08T06:56:36;73599.00;;;-148.52;61.48
3254;BME280;1639;42.804;23.342;2023-04-08T06:59:01;73599.00;;;-148.52;60.14
3254;BME280;1639;42.804;23.342;2023-04-08T07:01:27;73636.22;;;-148.52;59.57
3254;BME280;1639;42.804;23.342;2023-04-08T07:03:53;73630.03;;;-148.52;59.54
3254;BME280;1639;42.804;23.342;2023-04-08T07:06:18;73630.03;;;-148.52;60.43
3254;BME280;1639;42.804;23.342;2023-04-08T07:08:44;73621.75;;;-148.52;60.19
3254;BME280;1639;42.804;23.342;2023-04-08T07:11:09;73619.69;;;-148.52;59.23
3254;BME280;1639;42.804;23.342;2023-04-08T07:13:35;73625.88;;;-148.52;59.02
3254;BME280;1639;42.804;23.342;2023-04-08T07:16:00;73625.88;;;-148.52;60.22
3254;BME280;1639;42.804;23.342;2023-04-08T07:18:26;73613.47;;;-148.52;60.16
3254;BME280;1639;42.804;23.342;2023-04-08T07:20:52;73634.16;;;-148.52;60.41
3254;BME280;1639;42.804;23.342;2023-04-08T07:23:22;73617.63;;;-148.52;60.81
3254;BME280;1639;42.804;23.342;2023-04-08T07:25:47;73609.34;;;-148.52;60.30
3254;BME280;1639;42.804;23.342;2023-04-08T07:28:13;73613.47;;;-148.52;60.34
3254;BME280;1639;42.804;23.342;2023-04-08T07:30:38;73603.13;;;-148.52;60.72
3254;BME280;1639;42.804;23.342;2023-04-08T07:33:04;73584.50;;;-148.52;60.41
3254;BME280;1639;42.804;23.342;2023-04-08T07:35:29;73584.50;;;-148.52;60.30
3254;BME280;1639;42.804;23.342;2023-04-08T07:37:56;73563.84;;;-148.52;60.55
3254;BME280;1639;42.804;23.342;2023-04-08T07:40:22;73584.50;;;-148.52;60.61
3254;BME280;1639;42.804;23.342;2023-04-08T07:42:47;73563.84;;;-148.52;61.00
3254;BME280;1639;42.804;23.342;2023-04-08T07:45:13;73549.34;;;-148.52;59.17
3254;BME280;1639;42.804;23.342;2023-04-08T07:47:38;73565.91;;;-148.52;59.55
3254;BME280;1639;42.804;23.342;2023-04-08T07:50:05;73580.38;;;-148.52;60.19
3254;BME280;1639;42.804;23.342;2023-04-08T07:52:31;73559.69;;;-148.52;60.03
3254;BME280;1639;42.804;23.342;2023-04-08T07:54:56;73545.22;;;-148.52;60.18
3254;BME280;1639;42.804;23.342;2023-04-08T07:57:22;73559.69;;;-148.52;59.88
3254;BME280;1639;42.804;23.342;2023-04-08T07:59:47;73584.50;;;-148.52;59.39
3254;BME280;1639;42.804;23.342;2023-04-08T08:02:12;73572.09;;;-148.52;59.50
3254;BME280;1639;42.804;23.342;2023-04-08T08:04:38;73545.22;;;-148.52;58.66
3254;BME280;1639;42.804;23.342;2023-04-08T08:07:03;73553.50;;;-148.52;58.95
3254;BME280;1639;42.804;23.342;2023-04-08T08:09:29;73532.81;;;-148.52;58.50
3254;BME280;1639;42.804;23.342;2023-04-08T08:11:54;73497.63;;;-148.52;62.22
3254;BME280;1639;42.804;23.342;2023-04-08T08:14:19;73493.50;;;-148.52;58.52
3254;BME280;1639;42.804;23.342;2023-04-08T08:16:46;73491.44;;;-148.52;57.49
3254;BME280;1639;42.804;23.342;2023-04-08T08:19:11;73483.16;;;-148.52;57.36
3254;BME280;1639;42.804;23.342;2023-04-08T08:21:38;73493.50;;;-148.52;57.28
3254;BME280;1639;42.804;23.342;2023-04-08T08:24:06;73489.38;;;-148.52;57.03
3254;BME280;1639;42.804;23.342;2023-04-08T08:26:34;73507.97;;;-148.52;57.04
3254;BME280;1639;42.804;23.342;2023-04-08T08:29:01;73493.50;;;-148.52;57.66
3254;BME280;1639;42.804;23.342;2023-04-08T08:31:26;73501.78;;;-148.52;57.11
3254;BME280;1639;42.804;23.342;2023-04-08T08:33:51;73518.31;;;-148.52;57.72
3254;BME280;1639;42.804;23.342;2023-04-08T08:36:17;73505.91;;;-148.52;58.35
3254;BME280;1639;42.804;23.342;2023-04-08T08:38:42;73510.06;;;-148.52;58.54
3254;BME280;1639;42.804;23.342;2023-04-08T08:41:08;73505.91;;;-148.52;57.97
3254;BME280;1639;42.804;23.342;2023-04-08T08:43:33;73503.84;;;-148.52;58.39
3254;BME280;1639;42.804;23.342;2023-04-08T08:45:59;73499.72;;;-148.52;58.15
3254;BME280;1639;42.804;23.342;2023-04-08T08:48:25;73510.06;;;-148.52;57.81
3254;BME280;1639;42.804;23.342;2023-04-08T08:50:51;73518.31;;;-148.52;57.96
3254;BME280;1639;42.804;23.342;2023-04-08T08:53:16;73534.88;;;-148.52;58.05
3254;BME280;1639;42.804;23.342;2023-04-08T08:55:43;73536.94;;;-148.52;58.67
3254;BME280;1639;42.804;23.342;2023-04-08T08:58:09;73522.47;;;-148.52;59.15
3254;BME280;1639;42.804;23.342;2023-04-08T09:00:40;73526.59;;;-148.52;59.76
3254;BME280;1639;42.804;23.342;2023-04-08T09:05:58;73510.06;;;-148.52;57.95
3254;BME280;1639;42.804;23.342;2023-04-08T09:08:37;73495.56;;;-148.52;57.59
3254;BME280;1639;42.804;23.342;2023-04-08T09:11:16;73479.03;;;-148.52;58.12
3254;BME280;1639;42.804;23.342;2023-04-08T09:13:42;73458.34;;;-148.52;56.78
3254;BME280;1639;42.804;23.342;2023-04-08T09:16:10;73445.94;;;-148.52;56.58
3254;BME280;1639;42.804;23.342;2023-04-08T09:18:37;73435.59;;;-148.52;56.66
3254;BME280;1639;42.804;23.342;2023-04-08T09:21:03;73431.44;;;-148.52;55.76
3254;BME280;1639;42.804;23.342;2023-04-08T09:26:12;73404.56;;;-148.52;56.31
3254;BME280;1639;42.804;23.342;2023-04-08T09:28:38;73398.34;;;-148.52;56.77
3254;BME280;1639;42.804;23.342;2023-04-08T09:31:24;73396.28;;;-148.52;55.92
3254;BME280;1639;42.804;23.342;2023-04-08T09:33:53;73394.22;;;-148.52;56.03
3254;BME280;1639;42.804;23.342;2023-04-08T09:36:18;73410.75;;;-148.52;55.71
3254;BME280;1639;42.804;23.342;2023-04-08T09:38:44;73408.69;;;-148.52;56.59
3254;BME280;1639;42.804;23.342;2023-04-08T09:41:13;73357.00;;;-148.52;55.70
3254;BME280;1639;42.804;23.342;2023-04-08T09:43:46;73330.09;;;-148.52;55.00
3254;BME280;1639;42.804;23.342;2023-04-08T09:46:17;73315.63;;;-148.52;54.88
3254;BME280;1639;42.804;23.342;2023-04-08T09:48:48;73311.47;;;-148.52;55.33
3254;BME280;1639;42.804;23.342;2023-04-08T09:51:18;73303.22;;;-148.52;54.21
3254;BME280;1639;42.804;23.342;2023-04-08T09:53:49;73278.38;;;-148.52;55.39
3254;BME280;1639;42.804;23.342;2023-04-08T09:56:18;73270.13;;;-148.52;53.22
3254;BME280;1639;42.804;23.342;2023-04-08T09:59:02;73265.97;;;-148.52;53.58
3254;BME280;1639;42.804;23.342;2023-04-08T10:01:38;73237.03;;;-148.52;52.43
3254;BME280;1639;42.804;23.342;2023-04-08T10:04:09;73234.94;;;-148.52;52.17
3254;BME280;1639;42.804;23.342;2023-04-08T10:06:37;73247.38;;;-148.52;51.28
3254;BME280;1639;42.804;23.342;2023-04-08T10:09:03;73232.88;;;-148.52;50.33
3254;BME280;1639;42.804;23.342;2023-04-08T10:11:29;73212.19;;;-148.52;50.63
3254;BME280;1639;42.804;23.342;2023-04-08T10:13:55;73191.53;;;-148.52;50.48
3254;BME280;1639;42.804;23.342;2023-04-08T10:18:46;73214.28;;;-148.52;50.50
3254;BME280;1639;42.804;23.342;2023-04-08T10:21:39;73199.78;;;-148.52;50.41
3254;BME280;1639;42.804;23.342;2023-04-08T10:24:11;73214.28;;;-148.52;50.41
3254;BME280;1639;42.804;23.342;2023-04-08T10:26:41;73220.47;;;-148.52;50.32
3254;BME280;1639;42.804;23.342;2023-04-08T10:31:42;73088.09;;;-148.52;48.08
3254;BME280;1639;42.804;23.342;2023-04-08T10:34:21;73042.59;;;-148.52;46.42
3254;BME280;1639;42.804;23.342;2023-04-08T10:36:47;73050.88;;;-148.52;46.80
3254;BME280;1639;42.804;23.342;2023-04-08T10:39:13;72992.97;;;-148.52;46.46
3254;BME280;1639;42.804;23.342;2023-04-08T10:41:43;72976.41;;;-148.52;43.80
3254;BME280;1639;42.804;23.342;2023-04-08T10:44:23;73005.38;;;-148.52;43.57
3254;BME280;1639;42.804;23.342;2023-04-08T10:46:50;72976.41;;;-148.52;43.28
3254;BME280;1639;42.804;23.342;2023-04-08T10:49:16;72978.50;;;-148.52;44.51
3254;BME280;1639;42.804;23.342;2023-04-08T10:51:43;73001.25;;;-148.52;42.30
3254;BME280;1639;42.804;23.342;2023-04-08T10:54:11;72997.09;;;-148.52;41.76
3254;BME280;1639;42.804;23.342;2023-04-08T10:56:50;73007.44;;;-148.52;41.25
3254;BME280;1639;42.804;23.342;2023-04-08T10:59:26;73003.31;;;-148.52;43.37
3254;BME280;1639;42.804;23.342;2023-04-08T11:01:52;72986.75;;;-148.52;44.18
3254;BME280;1639;42.804;23.342;2023-04-08T11:04:18;72959.88;;;-148.52;44.75
3254;BME280;1639;42.804;23.342;2023-04-08T11:06:45;72953.66;;;-148.52;42.17
3254;BME280;1639;42.804;23.342;2023-04-08T11:09:12;72928.84;;;-148.52;43.10
3254;BME280;1639;42.804;23.342;2023-04-08T11:11:39;72914.38;;;-148.52;44.27
3254;BME280;1639;42.804;23.342;2023-04-08T11:14:05;72906.09;;;-148.52;44.83
3254;BME280;1639;42.804;23.342;2023-04-08T11:16:31;72935.06;;;-148.52;45.34
3254;BME280;1639;42.804;23.342;2023-04-08T11:18:57;72914.38;;;-148.52;44.97
3254;BME280;1639;42.804;23.342;2023-04-08T11:21:23;72879.22;;;-148.52;44.42
3254;BME280;1639;42.804;23.342;2023-04-08T11:23:50;72844.06;;;-148.52;44.24
3254;BME280;1639;42.804;23.342;2023-04-08T11:26:17;72821.31;;;-148.52;43.52
3254;BME280;1639;42.804;23.342;2023-04-08T11:28:44;72819.25;;;-148.52;42.00
3254;BME280;1639;42.804;23.342;2023-04-08T11:31:11;72852.31;;;-148.52;40.11
3254;BME280;1639;42.804;23.342;2023-04-08T11:33:37;72850.25;;;-148.52;42.56
3254;BME280;1639;42.804;23.342;2023-04-08T11:36:11;72831.66;;;-148.52;41.73
3254;BME280;1639;42.804;23.342;2023-04-08T11:38:38;72817.16;;;-148.52;41.31
3254;BME280;1639;42.804;23.342;2023-04-08T11:41:05;72844.06;;;-148.52;40.89
3254;BME280;1639;42.804;23.342;2023-04-08T11:43:31;72848.19;;;-148.52;39.59
3254;BME280;1639;42.804;23.342;2023-04-08T11:45:56;72827.50;;;-148.52;39.75
3254;BME280;1639;42.804;23.342;2023-04-08T11:48:22;72802.69;;;-148.52;39.11
3254;BME280;1639;42.804;23.342;2023-04-08T11:51:01;72800.63;;;-148.52;38.72
3254;BME280;1639;42.804;23.342;2023-04-08T11:53:27;72810.97;;;-148.52;40.67
3254;BME280;1639;42.804;23.342;2023-04-08T11:55:53;72844.06;;;-148.52;40.76
3254;BME280;1639;42.804;23.342;2023-04-08T11:58:19;72842.00;;;-148.52;40.73
3254;BME280;1639;42.804;23.342;2023-04-08T12:00:44;72852.31;;;-148.52;40.28
3254;BME280;1639;42.804;23.342;2023-04-08T12:03:10;72829.56;;;-148.52;41.50
3254;BME280;1639;42.804;23.342;2023-04-08T12:05:35;72806.81;;;-148.52;40.72
3254;BME280;1639;42.804;23.342;2023-04-08T12:08:01;72827.50;;;-148.52;40.21
3254;BME280;1639;42.804;23.342;2023-04-08T12:10:28;72817.16;;;-148.52;39.57
3254;BME280;1639;42.804;23.342;2023-04-08T12:12:53;72788.22;;;-148.52;40.96
3254;BME280;1639;42.804;23.342;2023-04-08T12:15:19;72782.00;;;-148.52;39.61
3254;BME280;1639;42.804;23.342;2023-04-08T12:17:44;72765.47;;;-148.52;40.07
3254;BME280;1639;42.804;23.342;2023-04-08T12:20:10;72759.25;;;-148.52;40.16
3254;BME280;1639;42.804;23.342;2023-04-08T12:22:36;72784.09;;;-148.52;40.33
3254;BME280;1639;42.804;23.342;2023-04-08T12:25:02;72788.22;;;-148.52;40.37
3254;BME280;1639;42.804;23.342;2023-04-08T12:27:29;72753.06;;;-148.52;39.83
3254;BME280;1639;42.804;23.342;2023-04-08T12:29:54;72753.06;;;-148.52;40.38
3254;BME280;1639;42.804;23.342;2023-04-08T12:32:20;72765.47;;;-148.52;40.55
3254;BME280;1639;42.804;23.342;2023-04-08T12:34:46;72775.81;;;-148.52;41.26
3254;BME280;1639;42.804;23.342;2023-04-08T12:37:11;72804.75;;;-148.52;40.23
3254;BME280;1639;42.804;23.342;2023-04-08T12:39:37;72808.91;;;-148.52;39.98
3254;BME280;1639;42.804;23.342;2023-04-08T12:42:03;72806.81;;;-148.52;40.73
3254;BME280;1639;42.804;23.342;2023-04-08T12:44:29;72827.50;;;-148.52;40.42
3254;BME280;1639;42.804;23.342;2023-04-08T12:46:54;72819.25;;;-148.52;41.23
3254;BME280;1639;42.804;23.342;2023-04-08T12:49:20;72833.72;;;-148.52;42.10
3254;BME280;1639;42.804;23.342;2023-04-08T12:51:46;72825.44;;;-148.52;42.98
3254;BME280;1639;42.804;23.342;2023-04-08T12:54:11;72835.78;;;-148.52;42.35
3254;BME280;1639;42.804;23.342;2023-04-08T12:56:37;72856.47;;;-148.52;42.05
3254;BME280;1639;42.804;23.342;2023-04-08T12:59:03;72810.97;;;-148.52;42.37